createdAt,value
2022-10-21T00:01:00.687Z,16.05
2022-10-21T00:03:29.113Z,18.25
2022-10-21T00:05:57.594Z,18.35
2022-10-21T00:08:26.138Z,16.15
2022-10-21T00:10:56.653Z,19.17
2022-10-21T00:13:25.397Z,17.75
2022-10-21T00:16:01.594Z,19.80
2022-10-21T00:18:30.144Z,18.25
2022-10-21T00:20:58.201Z,19.90
2022-10-21T00:23:26.529Z,15.60
2022-10-21T00:25:58.518Z,15.93
2022-10-21T00:28:26.638Z,18.10
2022-10-21T00:30:56.316Z,20.65
2022-10-21T00:33:26.991Z,17.88
2022-10-21T00:35:56.116Z,16.15
2022-10-21T00:38:24.412Z,14.65
2022-10-21T00:40:52.337Z,16.33
2022-10-21T00:43:21.645Z,17.17
2022-10-21T00:45:52.410Z,22.17
2022-10-21T00:48:26.118Z,14.18
2022-10-21T00:50:58.034Z,16.67
2022-10-21T00:53:26.823Z,19.05
2022-10-21T00:55:58.293Z,14.75
2022-10-21T00:58:31.823Z,16.13
2022-10-21T01:01:01.667Z,15.55
2022-10-21T01:03:32.031Z,13.95
2022-10-21T01:06:02.991Z,16.63
2022-10-21T01:08:31.342Z,19.70
2022-10-21T01:11:00.171Z,25.15
2022-10-21T01:13:39.791Z,17.10
2022-10-21T01:16:16.609Z,16.50
2022-10-21T01:18:51.785Z,19.88
2022-10-21T01:21:31.009Z,20.35
2022-10-21T01:24:21.157Z,17.63
2022-10-21T01:27:06.574Z,13.63
2022-10-21T01:30:06.069Z,16.25
2022-10-21T01:32:51.993Z,20.80
2022-10-21T01:35:23.488Z,18.17
2022-10-21T01:38:02.110Z,16.90
2022-10-21T01:40:35.593Z,17.25
2022-10-21T01:43:14.904Z,18.38
2022-10-21T01:45:48.778Z,15.88
2022-10-21T01:48:23.174Z,18.40
2022-10-21T01:50:56.325Z,13.27
2022-10-21T01:53:28.842Z,16.42
2022-10-21T01:55:58.605Z,15.10
2022-10-21T01:58:30.677Z,20.30
2022-10-21T02:01:01.548Z,19.65
2022-10-21T02:03:33.421Z,14.80
2022-10-21T02:06:01.437Z,17.85
2022-10-21T02:08:29.678Z,17.90
2022-10-21T02:11:01.171Z,16.13
2022-10-21T02:13:35.279Z,15.50
2022-10-21T02:16:06.784Z,14.88
2022-10-21T02:18:36.128Z,14.45
2022-10-21T02:21:07.037Z,15.07
2022-10-21T02:23:43.779Z,16.77
2022-10-21T02:26:12.061Z,13.88
2022-10-21T02:31:27.621Z,15.15
2022-10-21T02:34:06.701Z,14.38
2022-10-21T02:36:44.122Z,15.15
2022-10-21T02:39:17.869Z,13.73
2022-10-21T02:41:48.557Z,14.88
2022-10-21T02:44:17.228Z,14.52
2022-10-21T02:46:47.889Z,12.98
2022-10-21T02:49:17.175Z,15.75
2022-10-21T02:51:46.608Z,10.73
2022-10-21T02:54:14.789Z,11.18
2022-10-21T02:56:42.653Z,13.05
2022-10-21T02:59:10.563Z,14.98
2022-10-21T03:01:38.441Z,12.90
2022-10-21T03:04:06.644Z,11.00
2022-10-21T03:06:36.032Z,10.70
2022-10-21T03:09:05.361Z,14.23
2022-10-21T03:11:33.424Z,14.13
2022-10-21T03:14:01.317Z,13.15
2022-10-21T03:16:29.174Z,12.40
2022-10-21T03:18:57.039Z,11.63
2022-10-21T03:21:25.020Z,10.52
2022-10-21T03:23:54.271Z,9.07
2022-10-21T03:26:22.162Z,12.98
2022-10-21T03:28:50.136Z,12.18
2022-10-21T03:31:18.080Z,11.90
2022-10-21T03:33:46.027Z,10.10
2022-10-21T03:36:13.938Z,12.70
2022-10-21T03:38:41.881Z,11.80
2022-10-21T03:41:11.111Z,13.02
2022-10-21T03:43:39.005Z,14.32
2022-10-21T03:46:06.936Z,15.07
2022-10-21T03:48:34.814Z,13.43
2022-10-21T03:51:02.718Z,10.35
2022-10-21T03:53:42.885Z,12.65
2022-10-21T03:56:13.066Z,11.10
2022-10-21T03:58:40.939Z,12.65
2022-10-21T04:01:13.043Z,12.65
2022-10-21T04:03:41.259Z,10.52
2022-10-21T04:06:09.344Z,15.30
2022-10-21T04:08:37.427Z,13.30
2022-10-21T04:11:05.678Z,12.68
2022-10-21T04:13:35.005Z,11.65
2022-10-21T04:16:05.613Z,11.80
2022-10-21T04:18:34.288Z,14.35
2022-10-21T04:21:02.241Z,12.27
2022-10-21T04:23:30.213Z,13.95
2022-10-21T04:25:58.230Z,11.75
2022-10-21T04:28:26.258Z,17.30
2022-10-21T04:30:55.550Z,13.07
2022-10-21T04:33:23.479Z,18.20
2022-10-21T04:35:51.493Z,11.63
2022-10-21T04:38:19.373Z,13.90
2022-10-21T04:40:47.249Z,18.17
2022-10-21T04:43:15.226Z,14.85
2022-10-21T04:45:43.108Z,15.52
2022-10-21T04:48:13.604Z,12.77
2022-10-21T04:50:41.510Z,10.95
2022-10-21T04:53:09.423Z,13.43
2022-10-21T04:55:40.295Z,13.15
2022-10-21T04:58:08.348Z,12.25
2022-10-21T05:00:36.500Z,12.65
2022-10-21T05:03:04.959Z,13.70
2022-10-21T05:05:34.289Z,16.42
2022-10-21T05:08:02.198Z,13.95
2022-10-21T05:10:30.487Z,14.18
2022-10-21T05:12:58.687Z,14.55
2022-10-21T05:15:26.997Z,12.93
2022-10-21T05:17:55.211Z,16.15
2022-10-21T05:20:23.079Z,11.77
2022-10-21T05:22:53.502Z,14.85
2022-10-21T05:25:23.030Z,10.55
2022-10-21T05:27:51.836Z,12.37
2022-10-21T05:30:19.841Z,13.30
2022-10-21T05:32:47.739Z,13.65
2022-10-21T05:35:15.691Z,14.48
2022-10-21T05:37:43.589Z,13.45
2022-10-21T05:40:13.672Z,12.45
2022-10-21T05:42:41.643Z,13.40
2022-10-21T05:45:11.364Z,14.02
2022-10-21T05:47:41.351Z,12.23
2022-10-21T05:50:10.416Z,10.63
2022-10-21T05:52:38.937Z,15.93
2022-10-21T05:55:08.892Z,10.93
2022-10-21T05:57:39.193Z,13.80
2022-10-21T06:00:08.753Z,14.45
2022-10-21T06:02:36.949Z,12.88
2022-10-21T06:05:05.634Z,11.93
2022-10-21T06:07:33.558Z,14.23
2022-10-21T06:10:01.672Z,13.18
2022-10-21T06:12:29.653Z,8.75
2022-10-21T06:14:58.901Z,13.90
2022-10-21T06:17:26.814Z,9.85
2022-10-21T06:19:54.693Z,11.80
2022-10-21T06:22:22.621Z,12.33
2022-10-21T06:24:50.767Z,11.98
2022-10-21T06:27:18.694Z,10.18
2022-10-21T06:29:46.596Z,11.15
2022-10-21T06:32:15.917Z,11.43
2022-10-21T06:34:44.101Z,13.23
2022-10-21T06:37:11.980Z,13.85
2022-10-21T06:39:40.017Z,12.00
2022-10-21T06:42:07.966Z,10.30
2022-10-21T06:44:35.841Z,14.32
2022-10-21T06:47:03.771Z,16.30
2022-10-21T06:49:33.012Z,12.63
2022-10-21T06:52:01.096Z,10.90
2022-10-21T06:54:29.110Z,12.15
2022-10-21T06:56:56.965Z,10.70
2022-10-21T06:59:24.886Z,13.65
2022-10-21T07:02:00.247Z,15.40
2022-10-21T07:04:29.094Z,17.20
2022-10-21T07:06:58.618Z,12.45
2022-10-21T07:09:26.671Z,20.05
2022-10-21T07:11:54.711Z,11.07
2022-10-21T07:14:22.708Z,11.73
2022-10-21T07:16:51.518Z,11.98
2022-10-21T07:19:19.423Z,14.37
2022-10-21T07:21:47.364Z,13.48
2022-10-21T07:24:22.139Z,11.18
2022-10-21T07:26:50.749Z,12.02
2022-10-21T07:29:18.829Z,12.13
2022-10-21T07:31:46.879Z,13.65
2022-10-21T07:34:14.837Z,13.63
2022-10-21T07:36:44.863Z,11.38
2022-10-21T07:39:15.047Z,12.17
2022-10-21T07:41:46.500Z,13.37
2022-10-21T07:44:15.053Z,12.65
2022-10-21T07:46:45.003Z,11.07
2022-10-21T07:49:14.060Z,12.43
2022-10-21T07:51:42.425Z,14.27
2022-10-21T07:54:10.804Z,15.43
2022-10-21T07:56:42.130Z,11.45
2022-10-21T07:59:13.234Z,11.40
2022-10-21T08:01:44.161Z,11.07
2022-10-21T08:04:13.088Z,10.82
2022-10-21T08:06:41.072Z,11.68
2022-10-21T08:09:09.187Z,14.40
2022-10-21T08:11:37.321Z,10.52
2022-10-21T08:14:07.450Z,11.57
2022-10-21T08:16:37.354Z,11.90
2022-10-21T08:19:05.974Z,11.77
2022-10-21T08:21:34.080Z,11.25
2022-10-21T08:24:04.249Z,10.57
2022-10-21T08:26:32.703Z,13.10
2022-10-21T08:29:00.619Z,10.32
2022-10-21T08:31:28.621Z,10.20
2022-10-21T08:33:58.182Z,11.20
2022-10-21T08:36:27.462Z,13.20
2022-10-21T08:38:55.731Z,9.77
2022-10-21T08:41:41.226Z,10.43
2022-10-21T08:44:19.897Z,11.23
2022-10-21T08:46:52.725Z,10.63
2022-10-21T08:49:28.586Z,10.80
2022-10-21T08:52:03.303Z,12.17
2022-10-21T08:54:37.721Z,8.45
2022-10-21T08:57:05.722Z,8.23
2022-10-21T08:59:34.674Z,13.73
2022-10-21T09:02:14.062Z,10.50
2022-10-21T09:04:50.035Z,7.18
2022-10-21T09:07:26.249Z,8.48
2022-10-21T09:09:56.956Z,8.30
2022-10-21T09:12:30.392Z,7.82
2022-10-21T09:15:11.628Z,10.95
2022-10-21T09:18:02.863Z,10.10
2022-10-21T09:20:47.014Z,8.83
2022-10-21T09:23:39.031Z,10.50
2022-10-21T09:26:12.050Z,7.55
2022-10-21T09:28:39.952Z,10.60
2022-10-21T09:31:16.641Z,8.65
2022-10-21T09:33:47.918Z,10.02
2022-10-21T09:36:21.168Z,9.15
2022-10-21T09:38:55.788Z,7.63
2022-10-21T09:41:27.220Z,7.80
2022-10-21T09:43:56.119Z,7.93
2022-10-21T09:46:24.267Z,9.15
2022-10-21T09:49:23.200Z,6.13
2022-10-21T09:51:45.412Z,9.55
2022-10-21T09:54:18.910Z,8.57
2022-10-21T09:56:51.144Z,6.88
2022-10-21T09:59:22.632Z,7.57
2022-10-21T10:01:51.176Z,7.72
2022-10-21T10:04:24.999Z,11.38
2022-10-21T10:06:54.259Z,7.50
2022-10-21T10:09:28.281Z,10.57
2022-10-21T10:11:58.437Z,8.73
2022-10-21T10:14:32.348Z,9.23
2022-10-21T10:17:21.905Z,8.17
2022-10-21T10:20:23.180Z,7.75
2022-10-21T10:23:11.190Z,8.95
2022-10-21T10:25:40.437Z,11.45
2022-10-21T10:28:21.114Z,8.82
2022-10-21T10:30:51.160Z,9.85
2022-10-21T10:33:22.665Z,7.35
2022-10-21T10:35:52.799Z,8.48
2022-10-21T10:38:25.929Z,5.47
2022-10-21T10:40:56.424Z,10.05
2022-10-21T10:43:30.714Z,9.57
2022-10-21T10:46:02.356Z,9.07
2022-10-21T10:48:37.762Z,8.15
2022-10-21T10:51:08.942Z,10.30
2022-10-21T10:53:39.462Z,6.90
2022-10-21T10:56:24.118Z,9.48
2022-10-21T10:58:57.925Z,11.15
2022-10-21T11:01:31.846Z,8.93
2022-10-21T11:04:06.181Z,8.85
2022-10-21T11:06:43.510Z,7.78
2022-10-21T11:09:13.360Z,6.50
2022-10-21T11:11:45.412Z,8.40
2022-10-21T11:14:17.671Z,8.60
2022-10-21T11:17:01.178Z,7.20
2022-10-21T11:19:36.553Z,9.23
2022-10-21T11:22:13.873Z,5.70
2022-10-21T11:24:59.613Z,9.40
2022-10-21T11:27:41.221Z,8.38
2022-10-21T11:30:14.216Z,5.78
2022-10-21T11:33:03.797Z,7.53
2022-10-21T11:35:57.423Z,8.07
2022-10-21T11:38:49.174Z,9.98
2022-10-21T11:41:30.902Z,7.15
2022-10-21T11:44:12.782Z,9.60
2022-10-21T11:46:46.819Z,7.43
2022-10-21T11:49:27.106Z,6.15
2022-10-21T11:52:04.341Z,7.10
2022-10-21T11:55:08.573Z,5.05
2022-10-21T11:57:46.657Z,6.47
2022-10-21T12:00:18.360Z,9.30
2022-10-21T12:02:54.095Z,7.28
2022-10-21T12:05:31.549Z,5.32
2022-10-21T12:08:14.992Z,4.68
2022-10-21T12:10:48.309Z,8.80
2022-10-21T12:13:23.120Z,6.47
2022-10-21T12:15:55.085Z,3.47
2022-10-21T12:18:25.252Z,5.93
2022-10-21T12:20:55.044Z,8.85
2022-10-21T12:23:25.239Z,5.78
2022-10-21T12:26:07.844Z,7.30
2022-10-21T12:28:40.557Z,7.88
2022-10-21T12:31:28.060Z,9.07
2022-10-21T12:33:56.559Z,6.20
2022-10-21T12:36:42.570Z,5.57
2022-10-21T12:39:38.449Z,7.32
2022-10-21T12:42:07.701Z,6.33
2022-10-21T12:44:38.942Z,6.13
2022-10-21T12:47:24.851Z,4.20
2022-10-21T12:50:18.417Z,5.47
2022-10-21T12:52:48.268Z,4.32
2022-10-21T12:55:22.812Z,7.75
2022-10-21T12:58:00.083Z,4.40
2022-10-21T13:00:58.928Z,5.90
2022-10-21T13:03:56.032Z,4.20
2022-10-21T13:06:51.172Z,6.30
2022-10-21T13:09:34.771Z,3.35
2022-10-21T13:12:26.711Z,3.00
2022-10-21T13:14:56.619Z,4.90
2022-10-21T13:17:53.886Z,5.80
2022-10-21T13:20:49.129Z,4.47
2022-10-21T13:23:40.462Z,3.97
2022-10-21T13:26:22.283Z,4.82
2022-10-21T13:29:03.017Z,5.65
2022-10-21T13:31:31.432Z,2.65
2022-10-21T13:34:01.106Z,4.90
2022-10-21T13:36:40.034Z,5.50
2022-10-21T13:39:22.804Z,4.00
2022-10-21T13:42:00.600Z,5.82
2022-10-21T13:44:31.869Z,6.43
2022-10-21T13:46:59.805Z,3.20
2022-10-21T13:49:30.901Z,3.13
2022-10-21T13:51:59.232Z,3.80
2022-10-21T13:54:27.320Z,2.20
2022-10-21T13:56:55.180Z,3.73
2022-10-21T13:59:25.367Z,4.60
2022-10-21T14:01:54.997Z,3.92
2022-10-21T14:04:25.271Z,4.03
2022-10-21T14:06:57.896Z,2.97
2022-10-21T14:09:29.101Z,3.50
2022-10-21T14:12:00.064Z,2.40
2022-10-21T14:14:30.421Z,6.10
2022-10-21T14:17:00.816Z,3.72
2022-10-21T14:19:33.153Z,3.55
2022-10-21T14:22:03.453Z,4.95
2022-10-21T14:24:40.117Z,3.25
2022-10-21T14:27:10.622Z,3.55
2022-10-21T14:29:38.721Z,3.15
2022-10-21T14:32:07.290Z,5.03
2022-10-21T14:34:36.782Z,3.13
2022-10-21T14:37:19.056Z,4.50
2022-10-21T14:39:47.150Z,5.88
2022-10-21T14:42:19.071Z,4.20
2022-10-21T14:44:48.773Z,4.03
2022-10-21T14:47:19.710Z,3.10
2022-10-21T14:49:49.821Z,4.27
2022-10-21T14:52:22.572Z,4.22
2022-10-21T14:54:55.548Z,5.03
2022-10-21T14:57:38.716Z,5.30
2022-10-21T15:00:10.239Z,3.25
2022-10-21T15:02:39.433Z,3.23
2022-10-21T15:05:37.241Z,4.67
2022-10-21T15:08:32.201Z,4.03
2022-10-21T15:11:28.996Z,5.88
2022-10-21T15:14:06.912Z,3.28
2022-10-21T15:19:10.931Z,2.55
2022-10-21T15:21:46.956Z,3.83
2022-10-21T15:24:21.688Z,3.90
2022-10-21T15:26:52.921Z,3.88
2022-10-21T15:29:30.080Z,4.35
2022-10-21T15:32:00.325Z,3.47
2022-10-21T15:34:29.000Z,1.83
2022-10-21T15:36:56.934Z,2.33
2022-10-21T15:39:26.282Z,3.65
2022-10-21T15:41:56.305Z,2.72
2022-10-21T15:44:27.453Z,3.27
2022-10-21T15:47:00.446Z,3.70
2022-10-21T15:49:32.037Z,3.13
2022-10-21T15:52:00.104Z,4.78
2022-10-21T15:54:30.056Z,4.25
2022-10-21T15:56:59.476Z,4.82
2022-10-21T15:59:29.101Z,2.92
2022-10-21T16:01:58.485Z,1.98
2022-10-21T16:04:26.752Z,3.13
2022-10-21T16:06:55.857Z,3.40
2022-10-21T16:09:27.197Z,3.22
2022-10-21T16:12:00.368Z,3.20
2022-10-21T16:14:30.212Z,3.53
2022-10-21T16:16:59.850Z,4.05
2022-10-21T16:19:28.075Z,3.00
2022-10-21T16:21:56.098Z,3.40
2022-10-21T16:24:24.025Z,3.00
2022-10-21T16:26:52.000Z,2.80
2022-10-21T16:29:23.842Z,4.45
2022-10-21T16:31:52.151Z,2.88
2022-10-21T16:34:20.690Z,2.85
2022-10-21T16:36:48.902Z,4.13
2022-10-21T16:39:18.709Z,5.60
2022-10-21T16:41:46.693Z,3.65
2022-10-21T16:44:14.742Z,4.50
2022-10-21T16:46:50.148Z,3.20
2022-10-21T16:49:22.413Z,2.27
2022-10-21T16:51:51.921Z,6.77
2022-10-21T16:54:21.019Z,2.42
2022-10-21T16:56:50.243Z,2.83
2022-10-21T16:59:20.177Z,2.43
2022-10-21T17:01:49.424Z,2.67
2022-10-21T17:04:17.895Z,2.30
2022-10-21T17:06:45.819Z,3.22
2022-10-21T17:09:13.966Z,2.35
2022-10-21T17:11:43.409Z,4.05
2022-10-21T17:14:16.272Z,4.70
2022-10-21T17:16:45.266Z,6.28
2022-10-21T17:19:14.772Z,2.55
2022-10-21T17:21:43.152Z,2.30
2022-10-21T17:24:15.531Z,2.63
2022-10-21T17:26:43.632Z,2.05
2022-10-21T17:29:11.972Z,3.45
2022-10-21T17:31:41.174Z,4.85
2022-10-21T17:34:15.985Z,5.10
2022-10-21T17:36:45.276Z,6.25
2022-10-21T17:39:13.202Z,10.15
2022-10-21T17:41:41.126Z,4.03
2022-10-21T17:44:10.914Z,4.20
2022-10-21T17:46:38.920Z,3.78
2022-10-21T17:49:06.917Z,5.47
2022-10-21T17:51:34.766Z,3.50
2022-10-21T17:54:04.063Z,4.25
2022-10-21T17:56:32.018Z,3.78
2022-10-21T17:59:01.222Z,6.82
2022-10-21T18:01:29.257Z,2.80
2022-10-21T18:03:59.604Z,3.85
2022-10-21T18:06:28.025Z,3.35
2022-10-21T18:08:57.736Z,3.63
2022-10-21T18:11:27.304Z,5.97
2022-10-21T18:13:55.381Z,7.30
2022-10-21T18:16:24.895Z,5.85
2022-10-21T18:18:56.102Z,5.32
2022-10-21T18:21:26.626Z,6.10
2022-10-21T18:23:55.272Z,2.88
2022-10-21T18:26:27.030Z,4.87
2022-10-21T18:28:57.981Z,3.05
2022-10-21T18:31:29.779Z,5.85
2022-10-21T18:33:59.444Z,3.85
2022-10-21T18:36:27.802Z,5.97
2022-10-21T18:38:55.746Z,4.32
2022-10-21T18:41:23.850Z,5.30
2022-10-21T18:43:55.848Z,4.47
2022-10-21T18:46:24.566Z,4.10
2022-10-21T18:48:52.593Z,3.08
2022-10-21T18:51:23.113Z,3.50
2022-10-21T18:53:53.024Z,3.97
2022-10-21T18:56:23.122Z,4.72
2022-10-21T18:58:52.869Z,6.50
2022-10-21T19:01:22.638Z,6.70
2022-10-21T19:03:53.890Z,3.80
2022-10-21T19:06:32.484Z,2.70
2022-10-21T19:09:01.955Z,4.03
2022-10-21T19:11:30.697Z,5.00
2022-10-21T19:14:00.041Z,5.80
2022-10-21T19:16:28.049Z,5.43
2022-10-21T19:18:56.020Z,3.85
2022-10-21T19:21:25.254Z,4.82
2022-10-21T19:23:53.834Z,3.97
2022-10-21T19:26:24.003Z,5.00
2022-10-21T19:28:51.963Z,4.77
2022-10-21T19:31:21.550Z,2.50
2022-10-21T19:33:50.014Z,6.30
2022-10-21T19:36:18.103Z,3.20
2022-10-21T19:38:45.977Z,4.95
2022-10-21T19:41:16.585Z,6.78
2022-10-21T19:43:44.737Z,4.20
2022-10-21T19:46:18.892Z,3.13
2022-10-21T19:48:50.408Z,3.05
2022-10-21T19:51:20.248Z,3.20
2022-10-21T19:53:49.625Z,3.13
2022-10-21T19:56:20.975Z,5.00
2022-10-21T19:58:52.222Z,5.27
2022-10-21T20:01:22.368Z,7.68
2022-10-21T20:03:56.486Z,3.80
2022-10-21T20:06:26.696Z,4.40
2022-10-21T20:08:55.650Z,6.10
2022-10-21T20:11:23.823Z,6.65
2022-10-21T20:13:52.147Z,3.00
2022-10-21T20:16:21.951Z,3.45
2022-10-21T20:18:50.234Z,4.82
2022-10-21T20:21:19.839Z,3.42
2022-10-21T20:23:47.767Z,4.68
2022-10-21T20:26:15.749Z,4.85
2022-10-21T20:28:43.729Z,4.63
2022-10-21T20:31:13.133Z,4.57
2022-10-21T20:33:42.521Z,3.70
2022-10-21T20:36:13.728Z,4.07
2022-10-21T20:38:43.696Z,7.45
2022-10-21T20:41:14.238Z,5.27
2022-10-21T20:43:43.719Z,4.63
2022-10-21T20:46:13.556Z,5.18
2022-10-21T20:48:42.656Z,3.50
2022-10-21T20:51:12.606Z,3.80
2022-10-21T20:53:44.516Z,5.43
2022-10-21T20:56:12.606Z,6.22
2022-10-21T20:58:41.868Z,4.10
2022-10-21T21:01:10.891Z,5.15
2022-10-21T21:03:39.209Z,4.82
2022-10-21T21:06:07.525Z,4.90
2022-10-21T21:08:36.078Z,9.45
2022-10-21T21:11:07.085Z,3.22
2022-10-21T21:13:35.532Z,3.40
2022-10-21T21:16:05.398Z,3.65
2022-10-21T21:18:33.365Z,6.00
2022-10-21T21:21:06.562Z,5.47
2022-10-21T21:23:35.088Z,5.93
2022-10-21T21:26:07.695Z,4.40
2022-10-21T21:28:36.470Z,5.63
2022-10-21T21:31:05.430Z,7.20
2022-10-21T21:33:34.184Z,3.83
2022-10-21T21:36:02.950Z,5.20
2022-10-21T21:38:31.629Z,7.50
2022-10-21T21:40:59.963Z,5.43
2022-10-21T21:43:31.086Z,2.88
2022-10-21T21:45:59.510Z,4.30
2022-10-21T21:48:27.587Z,4.77
2022-10-21T21:51:01.480Z,3.40
2022-10-21T21:53:29.449Z,4.07
2022-10-21T21:56:00.957Z,4.32
2022-10-21T21:58:32.341Z,4.97
2022-10-21T22:01:09.580Z,4.40
2022-10-21T22:03:37.615Z,3.83
2022-10-21T22:06:06.504Z,4.50
2022-10-21T22:08:35.390Z,5.90
2022-10-21T22:11:08.980Z,3.77
2022-10-21T22:13:38.605Z,8.55
2022-10-21T22:16:08.957Z,4.10
2022-10-21T22:18:36.965Z,5.18
2022-10-21T22:21:08.184Z,4.70
2022-10-21T22:23:36.371Z,5.35
2022-10-21T22:26:04.391Z,5.00
2022-10-21T22:28:32.412Z,6.45
2022-10-21T22:31:04.231Z,5.38
2022-10-21T22:33:32.654Z,3.75
2022-10-21T22:36:00.772Z,6.82
2022-10-21T22:38:29.431Z,3.97
2022-10-21T22:40:58.875Z,4.15
2022-10-21T22:43:27.549Z,4.88
2022-10-21T22:46:05.094Z,5.20
2022-10-21T22:48:44.557Z,4.80
2022-10-21T22:51:12.452Z,4.57
2022-10-21T22:53:40.311Z,5.38
2022-10-21T22:56:08.618Z,6.20
2022-10-21T22:58:36.561Z,5.15
2022-10-21T23:01:08.096Z,2.67
2022-10-21T23:03:37.061Z,4.80
2022-10-21T23:06:06.712Z,3.83
2022-10-21T23:08:34.656Z,4.65
2022-10-21T23:11:02.568Z,3.65
2022-10-21T23:13:30.502Z,4.57
2022-10-21T23:15:58.471Z,2.90
2022-10-21T23:18:26.425Z,4.22
2022-10-21T23:20:54.336Z,5.05
2022-10-21T23:23:23.658Z,3.60
2022-10-21T23:25:51.531Z,6.20
2022-10-21T23:30:52.240Z,6.00
2022-10-21T23:33:20.144Z,5.97
2022-10-21T23:35:48.076Z,4.80
2022-10-21T23:38:15.975Z,5.55
2022-10-21T23:40:45.255Z,11.15
2022-10-21T23:43:13.109Z,11.98
2022-10-21T23:45:40.993Z,5.30
2022-10-21T23:48:08.844Z,3.42
2022-10-21T23:50:39.789Z,3.90
2022-10-21T23:53:10.375Z,6.90
2022-10-21T23:55:38.400Z,5.00
2022-10-21T23:58:07.666Z,5.13
